createdAt,value
2017-08-21T00:02:25.566Z,14.10
2017-08-21T00:04:51.980Z,14.10
2017-08-21T00:07:19.099Z,14.10
2017-08-21T00:09:45.496Z,14.10
2017-08-21T00:12:11.891Z,14.10
2017-08-21T00:14:39.036Z,14.10
2017-08-21T00:17:06.161Z,14.10
2017-08-21T00:19:32.564Z,14.10
2017-08-21T00:21:58.953Z,14.10
2017-08-21T00:24:26.075Z,14.10
2017-08-21T00:26:52.488Z,14.10
2017-08-21T00:29:18.879Z,14.00
2017-08-21T00:31:45.278Z,14.00
2017-08-21T00:34:11.697Z,13.90
2017-08-21T00:36:38.083Z,13.90
2017-08-21T00:39:04.496Z,13.90
2017-08-21T00:41:31.645Z,13.90
2017-08-21T00:43:58.811Z,13.80
2017-08-21T00:46:25.250Z,13.80
2017-08-21T00:48:51.676Z,13.80
2017-08-21T00:51:18.167Z,13.80
2017-08-21T00:53:44.593Z,13.90
2017-08-21T00:56:10.991Z,13.90
2017-08-21T00:58:37.439Z,13.80
2017-08-21T01:01:03.806Z,13.80
2017-08-21T01:03:30.272Z,13.70
2017-08-21T01:05:57.426Z,13.80
2017-08-21T01:08:23.863Z,13.80
2017-08-21T01:10:50.287Z,13.80
2017-08-21T01:13:17.427Z,13.70
2017-08-21T01:15:44.545Z,13.70
2017-08-21T01:18:10.986Z,13.70
2017-08-21T01:20:37.440Z,13.70
2017-08-21T01:23:04.566Z,13.80
2017-08-21T01:25:30.995Z,13.70
2017-08-21T01:27:57.378Z,13.80
2017-08-21T01:30:23.748Z,13.60
2017-08-21T01:32:50.166Z,13.40
2017-08-21T01:35:16.558Z,13.40
2017-08-21T01:37:43.727Z,13.50
2017-08-21T01:40:10.128Z,13.50
2017-08-21T01:42:36.511Z,13.40
2017-08-21T01:45:02.944Z,13.40
2017-08-21T01:47:29.313Z,13.40
2017-08-21T01:49:55.704Z,13.30
2017-08-21T01:52:22.090Z,13.50
2017-08-21T01:54:48.503Z,13.50
2017-08-21T01:57:14.928Z,13.50
2017-08-21T01:59:41.311Z,13.40
2017-08-21T02:02:07.696Z,13.30
2017-08-21T02:04:34.125Z,13.20
2017-08-21T02:07:00.537Z,13.30
2017-08-21T02:09:26.953Z,13.30
2017-08-21T02:11:53.375Z,13.40
2017-08-21T02:14:19.758Z,13.40
2017-08-21T02:16:46.167Z,13.30
2017-08-21T02:19:12.559Z,13.30
2017-08-21T02:21:39.691Z,13.30
2017-08-21T02:24:06.091Z,13.30
2017-08-21T02:26:32.464Z,13.20
2017-08-21T02:28:59.629Z,13.30
2017-08-21T02:31:26.011Z,13.30
2017-08-21T02:33:52.434Z,13.30
2017-08-21T02:36:18.816Z,13.20
2017-08-21T02:38:45.972Z,13.00
2017-08-21T02:41:12.366Z,13.00
2017-08-21T02:43:38.767Z,13.10
2017-08-21T02:46:05.237Z,13.10
2017-08-21T02:48:31.628Z,13.10
2017-08-21T02:50:58.039Z,13.10
2017-08-21T02:53:24.420Z,13.10
2017-08-21T02:55:50.803Z,13.00
2017-08-21T02:58:17.243Z,13.00
2017-08-21T03:00:43.655Z,13.00
2017-08-21T03:03:10.827Z,13.10
2017-08-21T03:05:37.271Z,13.10
2017-08-21T03:08:03.715Z,13.10
2017-08-21T03:10:30.115Z,13.20
2017-08-21T03:12:56.498Z,13.20
2017-08-21T03:15:22.919Z,13.20
2017-08-21T03:17:49.297Z,13.10
2017-08-21T03:20:16.444Z,13.00
2017-08-21T03:22:42.859Z,13.00
2017-08-21T03:25:09.253Z,12.90
2017-08-21T03:27:35.647Z,13.00
2017-08-21T03:30:02.041Z,12.90
2017-08-21T03:32:28.457Z,13.00
2017-08-21T03:34:54.903Z,12.80
2017-08-21T03:37:21.324Z,12.80
2017-08-21T03:39:47.717Z,12.80
2017-08-21T03:42:14.143Z,12.80
2017-08-21T03:44:41.256Z,12.70
2017-08-21T03:47:07.644Z,12.70
2017-08-21T03:49:34.087Z,12.60
2017-08-21T03:52:00.478Z,12.70
2017-08-21T03:54:26.866Z,12.70
2017-08-21T03:56:53.242Z,12.70
2017-08-21T03:59:19.602Z,12.70
2017-08-21T04:01:46.067Z,12.60
2017-08-21T04:04:12.456Z,12.70
2017-08-21T04:06:38.875Z,12.80
2017-08-21T04:09:06.083Z,12.80
2017-08-21T04:11:32.479Z,12.80
2017-08-21T04:13:58.899Z,12.90
2017-08-21T04:16:26.040Z,13.00
2017-08-21T04:18:52.457Z,12.90
2017-08-21T04:21:18.871Z,13.00
2017-08-21T04:23:45.288Z,12.90
2017-08-21T04:26:11.667Z,12.80
2017-08-21T04:28:38.072Z,12.80
2017-08-21T04:31:04.456Z,12.90
2017-08-21T04:33:30.890Z,12.90
2017-08-21T04:35:57.259Z,13.10
2017-08-21T04:38:23.639Z,13.20
2017-08-21T04:40:50.788Z,13.40
2017-08-21T04:43:17.932Z,13.50
2017-08-21T04:45:44.352Z,13.40
2017-08-21T04:48:11.483Z,13.60
2017-08-21T04:50:37.878Z,13.60
2017-08-21T04:53:04.260Z,13.70
2017-08-21T04:55:30.652Z,13.70
2017-08-21T04:57:57.066Z,13.70
2017-08-21T05:00:23.452Z,13.80
2017-08-21T05:02:49.839Z,13.90
2017-08-21T05:05:16.276Z,14.00
2017-08-21T05:07:42.655Z,14.00
2017-08-21T05:10:09.068Z,13.90
2017-08-21T05:12:35.463Z,14.10
2017-08-21T05:15:01.919Z,14.20
2017-08-21T05:17:28.311Z,14.20
2017-08-21T05:19:55.478Z,14.40
2017-08-21T05:22:21.894Z,14.40
2017-08-21T05:24:49.187Z,14.50
2017-08-21T05:27:15.551Z,14.50
2017-08-21T05:29:41.947Z,14.70
2017-08-21T05:32:08.360Z,14.70
2017-08-21T05:34:34.740Z,14.80
2017-08-21T05:37:01.147Z,14.80
2017-08-21T05:39:27.523Z,14.80
2017-08-21T05:41:53.898Z,14.90
2017-08-21T05:44:20.296Z,14.90
2017-08-21T05:46:47.424Z,15.10
2017-08-21T05:49:13.831Z,15.10
2017-08-21T05:51:40.250Z,15.10
2017-08-21T05:54:06.623Z,15.20
2017-08-21T05:56:33.014Z,15.20
2017-08-21T05:58:59.392Z,15.10
2017-08-21T06:01:25.803Z,15.10
2017-08-21T06:03:59.032Z,15.20
2017-08-21T06:06:26.200Z,15.10
2017-08-21T06:08:52.583Z,15.00
2017-08-21T06:11:19.052Z,15.10
2017-08-21T06:13:46.166Z,15.30
2017-08-21T06:16:12.564Z,15.30
2017-08-21T06:18:38.934Z,15.50
2017-08-21T06:21:05.313Z,15.50
2017-08-21T06:23:31.715Z,15.50
2017-08-21T06:25:58.096Z,15.60
2017-08-21T06:29:04.120Z,15.70
2017-08-21T06:31:31.271Z,15.80
2017-08-21T06:33:57.660Z,15.80
2017-08-21T06:36:24.139Z,16.00
2017-08-21T06:38:50.539Z,16.00
2017-08-21T06:41:16.927Z,16.00
2017-08-21T06:43:43.321Z,16.00
2017-08-21T06:46:09.714Z,16.10
2017-08-21T06:48:36.128Z,16.10
2017-08-21T06:51:02.518Z,16.10
2017-08-21T06:53:28.935Z,16.20
2017-08-21T06:55:55.303Z,16.30
2017-08-21T06:58:21.720Z,16.30
2017-08-21T07:00:48.103Z,16.40
2017-08-21T07:03:14.494Z,16.40
2017-08-21T07:05:40.896Z,16.60
2017-08-21T07:08:07.296Z,16.60
2017-08-21T07:10:33.719Z,16.60
2017-08-21T07:13:00.099Z,16.60
2017-08-21T07:15:26.474Z,16.60
2017-08-21T07:17:52.875Z,16.70
2017-08-21T07:20:19.256Z,16.70
2017-08-21T07:22:45.660Z,16.70
2017-08-21T07:25:12.040Z,16.70
2017-08-21T07:27:38.434Z,16.70
2017-08-21T07:30:04.896Z,16.80
2017-08-21T07:32:31.292Z,16.80
2017-08-21T07:34:57.659Z,16.90
2017-08-21T07:37:24.066Z,16.90
2017-08-21T07:39:50.491Z,17.00
2017-08-21T07:42:16.901Z,17.00
2017-08-21T07:44:43.302Z,17.00
2017-08-21T07:47:09.674Z,17.10
2017-08-21T07:49:36.099Z,17.20
2017-08-21T07:52:02.504Z,17.30
2017-08-21T07:54:28.899Z,17.40
2017-08-21T07:56:55.316Z,17.50
2017-08-21T07:59:21.726Z,17.50
2017-08-21T08:01:48.131Z,17.50
2017-08-21T08:04:14.539Z,17.50
2017-08-21T08:06:40.958Z,17.60
2017-08-21T08:09:07.355Z,17.70
2017-08-21T08:11:33.731Z,17.70
2017-08-21T08:14:00.103Z,17.80
2017-08-21T08:16:26.508Z,17.90
2017-08-21T08:18:52.899Z,17.90
2017-08-21T08:21:19.297Z,18.00
2017-08-21T08:23:45.676Z,18.00
2017-08-21T08:26:12.091Z,18.10
2017-08-21T08:28:38.502Z,18.20
2017-08-21T08:31:04.899Z,18.20
2017-08-21T08:33:31.295Z,18.30
2017-08-21T08:35:57.686Z,18.40
2017-08-21T08:38:24.074Z,18.50
2017-08-21T08:40:50.489Z,18.60
2017-08-21T08:43:16.895Z,18.70
2017-08-21T08:45:43.304Z,18.80
2017-08-21T08:48:09.702Z,18.80
2017-08-21T08:50:36.140Z,18.90
2017-08-21T08:53:02.527Z,18.90
2017-08-21T08:55:28.922Z,19.00
2017-08-21T08:57:55.364Z,19.10
2017-08-21T09:00:21.827Z,19.10
2017-08-21T09:02:48.266Z,19.30
2017-08-21T09:05:14.685Z,19.30
2017-08-21T09:07:41.087Z,19.40
2017-08-21T09:10:07.488Z,19.40
2017-08-21T09:12:33.895Z,19.50
2017-08-21T09:15:00.288Z,19.60
2017-08-21T09:17:26.674Z,19.70
2017-08-21T09:19:53.112Z,19.80
2017-08-21T09:22:19.515Z,19.90
2017-08-21T09:24:45.901Z,19.90
2017-08-21T09:27:12.308Z,20.00
2017-08-21T09:29:38.703Z,20.10
2017-08-21T09:32:05.087Z,20.20
2017-08-21T09:34:31.493Z,20.40
2017-08-21T09:36:57.863Z,20.50
2017-08-21T09:39:24.270Z,20.60
2017-08-21T09:41:50.699Z,20.70
2017-08-21T09:44:17.088Z,20.80
2017-08-21T09:46:43.506Z,20.90
2017-08-21T09:49:09.904Z,20.80
2017-08-21T09:51:36.282Z,20.80
2017-08-21T09:54:02.679Z,20.80
2017-08-21T09:56:29.124Z,20.80
2017-08-21T09:58:55.519Z,20.80
2017-08-21T10:01:21.946Z,20.80
2017-08-21T10:03:48.338Z,20.80
2017-08-21T10:06:14.706Z,20.90
2017-08-21T10:08:41.083Z,21.00
2017-08-21T10:11:07.541Z,21.10
2017-08-21T10:13:33.924Z,21.20
2017-08-21T10:16:00.343Z,21.30
2017-08-21T10:18:26.736Z,21.40
2017-08-21T10:20:53.153Z,21.30
2017-08-21T10:23:19.571Z,21.30
2017-08-21T10:25:45.951Z,21.30
2017-08-21T10:28:12.334Z,21.40
2017-08-21T10:30:38.763Z,21.50
2017-08-21T10:33:05.179Z,21.60
2017-08-21T10:35:31.571Z,21.70
2017-08-21T10:37:57.980Z,21.70
2017-08-21T10:40:24.391Z,21.80
2017-08-21T10:42:50.767Z,21.90
2017-08-21T10:45:17.189Z,22.00
2017-08-21T10:47:43.643Z,22.00
2017-08-21T10:50:10.057Z,22.00
2017-08-21T10:52:36.459Z,22.00
2017-08-21T10:55:02.836Z,21.90
2017-08-21T10:57:29.240Z,21.90
2017-08-21T10:59:55.627Z,21.90
2017-08-21T11:02:22.038Z,21.90
2017-08-21T11:04:55.351Z,22.00
2017-08-21T11:07:21.771Z,22.10
2017-08-21T11:09:48.180Z,22.10
2017-08-21T11:12:14.591Z,22.20
2017-08-21T11:14:40.980Z,22.40
2017-08-21T11:17:07.396Z,22.50
2017-08-21T11:19:33.798Z,22.50
2017-08-21T11:22:00.184Z,22.50
2017-08-21T11:24:26.582Z,22.50
2017-08-21T11:26:52.972Z,22.60
2017-08-21T11:29:19.383Z,22.50
2017-08-21T11:31:45.795Z,22.60
2017-08-21T11:34:12.167Z,22.60
2017-08-21T11:36:38.591Z,22.60
2017-08-21T11:39:04.968Z,22.80
2017-08-21T11:41:31.380Z,22.80
2017-08-21T11:43:57.799Z,23.00
2017-08-21T11:46:24.186Z,23.10
2017-08-21T11:48:50.556Z,23.30
2017-08-21T11:51:16.975Z,23.50
2017-08-21T11:53:43.389Z,23.70
2017-08-21T11:56:09.810Z,23.80
2017-08-21T11:58:36.178Z,24.00
2017-08-21T12:01:02.584Z,23.90
2017-08-21T12:03:29.010Z,23.80
2017-08-21T12:05:55.408Z,24.00
2017-08-21T12:08:21.816Z,24.20
2017-08-21T12:10:48.211Z,24.50
2017-08-21T12:13:14.599Z,24.80
2017-08-21T12:15:41.040Z,25.00
2017-08-21T12:18:07.439Z,25.10
2017-08-21T12:20:33.831Z,25.20
2017-08-21T12:23:00.260Z,25.10
2017-08-21T12:25:26.667Z,25.30
2017-08-21T12:27:53.075Z,25.50
2017-08-21T12:30:19.462Z,25.80
2017-08-21T12:32:45.827Z,26.10
2017-08-21T12:35:12.240Z,26.40
2017-08-21T12:37:38.628Z,26.80
2017-08-21T12:40:05.035Z,27.00
2017-08-21T12:42:31.439Z,27.40
2017-08-21T12:44:57.830Z,27.50
2017-08-21T12:47:24.215Z,27.30
2017-08-21T12:49:50.611Z,27.30
2017-08-21T12:52:16.984Z,27.30
2017-08-21T12:54:43.355Z,27.40
2017-08-21T12:57:09.772Z,27.50
2017-08-21T12:59:36.151Z,27.90
2017-08-21T13:02:02.540Z,28.00
2017-08-21T13:04:28.955Z,28.10
2017-08-21T13:06:55.330Z,28.20
2017-08-21T13:09:21.740Z,28.20
2017-08-21T13:11:48.118Z,28.40
2017-08-21T13:14:14.523Z,28.60
2017-08-21T13:16:40.952Z,28.60
2017-08-21T13:19:07.351Z,28.70
2017-08-21T13:21:33.762Z,28.60
2017-08-21T13:24:00.170Z,28.60
2017-08-21T13:26:26.588Z,28.70
2017-08-21T13:28:52.967Z,28.80
2017-08-21T13:31:19.370Z,28.80
2017-08-21T13:33:45.768Z,29.00
2017-08-21T13:36:12.128Z,28.80
2017-08-21T13:38:38.531Z,29.10
2017-08-21T13:41:04.922Z,29.00
2017-08-21T13:43:31.331Z,28.70
2017-08-21T13:45:57.751Z,28.70
2017-08-21T13:48:24.163Z,28.80
2017-08-21T13:50:50.584Z,28.90
2017-08-21T13:53:17.011Z,28.70
2017-08-21T13:55:43.395Z,28.60
2017-08-21T13:58:09.812Z,28.60
2017-08-21T14:00:36.206Z,28.60
2017-08-21T14:03:02.623Z,28.60
2017-08-21T14:05:29.011Z,28.80
2017-08-21T14:07:55.403Z,28.50
2017-08-21T14:10:21.795Z,28.50
2017-08-21T14:12:48.183Z,28.50
2017-08-21T14:15:14.596Z,28.60
2017-08-21T14:17:40.967Z,28.50
2017-08-21T14:20:07.358Z,28.40
2017-08-21T14:22:33.808Z,28.50
2017-08-21T14:25:00.215Z,28.30
2017-08-21T14:27:26.643Z,28.30
2017-08-21T14:29:53.016Z,28.30
2017-08-21T14:32:19.476Z,28.30
2017-08-21T14:34:45.852Z,28.30
2017-08-21T14:37:12.244Z,28.30
2017-08-21T14:39:38.655Z,28.50
2017-08-21T14:42:05.053Z,28.60
2017-08-21T14:44:31.431Z,28.40
2017-08-21T14:46:58.087Z,28.20
2017-08-21T14:49:24.476Z,28.20
2017-08-21T14:51:50.896Z,28.10
2017-08-21T14:54:17.292Z,28.30
2017-08-21T14:56:43.703Z,28.40
2017-08-21T14:59:10.086Z,28.30
2017-08-21T15:01:36.504Z,28.00
2017-08-21T15:04:02.952Z,28.00
2017-08-21T15:06:29.355Z,27.80
2017-08-21T15:08:55.757Z,27.50
2017-08-21T15:11:22.141Z,27.10
2017-08-21T15:13:48.587Z,26.80
2017-08-21T15:16:14.995Z,26.50
2017-08-21T15:18:41.403Z,26.10
2017-08-21T15:21:08.403Z,25.80
2017-08-21T15:23:34.791Z,25.50
2017-08-21T15:26:01.172Z,25.20
2017-08-21T15:28:27.607Z,25.00
2017-08-21T15:30:54.015Z,24.80
2017-08-21T15:33:20.438Z,24.60
2017-08-21T15:35:46.849Z,24.30
2017-08-21T15:38:13.266Z,24.20
2017-08-21T15:40:54.555Z,24.10
2017-08-21T15:43:20.971Z,24.20
2017-08-21T15:45:47.399Z,24.10
2017-08-21T15:48:13.778Z,24.10
2017-08-21T15:50:40.193Z,23.90
2017-08-21T15:53:06.613Z,23.90
2017-08-21T15:55:33.019Z,23.70
2017-08-21T15:57:59.419Z,23.60
2017-08-21T16:00:25.827Z,23.60
2017-08-21T16:02:52.218Z,23.50
2017-08-21T16:05:18.647Z,23.50
2017-08-21T16:07:45.035Z,23.40
2017-08-21T16:10:11.456Z,23.40
2017-08-21T16:12:37.951Z,23.30
2017-08-21T16:15:04.419Z,23.20
2017-08-21T16:17:30.796Z,23.00
2017-08-21T16:19:57.206Z,23.00
2017-08-21T16:22:23.651Z,23.00
2017-08-21T16:24:50.090Z,23.00
2017-08-21T16:34:57.697Z,22.50
2017-08-21T16:37:24.323Z,22.50
2017-08-21T16:39:51.818Z,22.20
2017-08-21T16:42:18.294Z,22.30
2017-08-21T16:44:44.719Z,22.30
2017-08-21T16:47:11.307Z,22.30
2017-08-21T16:49:37.746Z,22.20
2017-08-21T16:52:04.136Z,22.20
2017-08-21T16:54:30.527Z,22.20
2017-08-21T16:56:56.890Z,22.10
2017-08-21T16:59:23.292Z,22.00
2017-08-21T17:01:49.698Z,22.00
2017-08-21T17:04:16.104Z,21.90
2017-08-21T17:06:42.480Z,21.80
2017-08-21T17:09:08.908Z,21.70
2017-08-21T17:11:35.349Z,21.70
2017-08-21T17:14:01.724Z,21.60
2017-08-21T17:16:28.139Z,21.50
2017-08-21T17:18:54.596Z,21.40
2017-08-21T17:21:21.043Z,21.30
2017-08-21T17:23:47.435Z,21.30
2017-08-21T17:26:13.823Z,21.30
2017-08-21T17:28:40.258Z,21.20
2017-08-21T17:31:06.660Z,21.00
2017-08-21T17:33:33.056Z,21.00
2017-08-21T17:35:59.469Z,21.00
2017-08-21T17:38:25.932Z,20.90
2017-08-21T17:40:52.423Z,20.80
2017-08-21T17:43:18.859Z,20.70
2017-08-21T17:45:45.256Z,20.70
2017-08-21T17:48:11.662Z,20.60
2017-08-21T17:50:38.444Z,20.60
2017-08-21T17:53:04.867Z,20.50
2017-08-21T17:55:31.252Z,20.50
2017-08-21T17:57:57.673Z,20.40
2017-08-21T18:00:24.840Z,20.10
2017-08-21T18:02:51.272Z,20.10
2017-08-21T18:05:17.645Z,20.00
2017-08-21T18:07:44.036Z,19.90
2017-08-21T18:10:10.453Z,19.70
2017-08-21T18:12:36.909Z,19.60
2017-08-21T18:15:03.352Z,19.50
2017-08-21T18:17:29.736Z,19.40
2017-08-21T18:19:56.140Z,19.30
2017-08-21T18:22:22.551Z,19.10
2017-08-21T18:24:48.963Z,19.00
2017-08-21T18:27:15.341Z,18.80
2017-08-21T18:29:41.735Z,18.70
2017-08-21T18:32:08.139Z,18.60
2017-08-21T18:34:34.523Z,18.40
2017-08-21T18:37:00.931Z,18.40
2017-08-21T18:39:27.318Z,18.30
2017-08-21T18:41:53.736Z,18.20
2017-08-21T18:44:20.120Z,18.20
2017-08-21T18:46:46.547Z,18.10
2017-08-21T18:49:12.928Z,18.00
2017-08-21T18:51:39.350Z,18.00
2017-08-21T18:54:05.779Z,18.00
2017-08-21T18:56:32.163Z,17.90
2017-08-21T18:58:58.571Z,17.90
2017-08-21T19:01:24.999Z,17.80
2017-08-21T19:03:51.368Z,17.80
2017-08-21T19:06:17.774Z,17.70
2017-08-21T19:08:44.184Z,17.60
2017-08-21T19:11:10.587Z,17.50
2017-08-21T19:13:37.846Z,17.40
2017-08-21T19:16:04.290Z,17.40
2017-08-21T19:18:30.706Z,17.40
2017-08-21T19:20:57.115Z,17.40
2017-08-21T19:23:23.495Z,17.30
2017-08-21T19:25:49.908Z,17.30
2017-08-21T19:28:16.349Z,17.30
2017-08-21T19:30:42.783Z,17.30
2017-08-21T19:33:09.775Z,17.20
2017-08-21T19:35:36.228Z,17.10
2017-08-21T19:38:02.615Z,17.00
2017-08-21T19:40:29.023Z,17.00
2017-08-21T19:42:55.452Z,17.00
2017-08-21T19:45:21.907Z,16.90
2017-08-21T19:47:48.355Z,16.90
2017-08-21T19:50:14.743Z,16.80
2017-08-21T19:52:41.168Z,16.80
2017-08-21T19:55:07.576Z,16.80
2017-08-21T19:57:33.972Z,16.70
2017-08-21T20:00:00.348Z,16.70
2017-08-21T20:02:26.751Z,16.70
2017-08-21T20:04:53.134Z,16.70
2017-08-21T20:07:19.520Z,16.70
2017-08-21T20:09:45.944Z,16.70
2017-08-21T20:12:12.412Z,16.70
2017-08-21T20:14:38.899Z,16.70
2017-08-21T20:17:05.422Z,16.70
2017-08-21T20:19:31.811Z,16.70
2017-08-21T20:21:58.228Z,16.70
2017-08-21T20:24:24.623Z,16.70
2017-08-21T20:26:51.048Z,16.70
2017-08-21T20:29:17.448Z,16.70
2017-08-21T20:31:43.815Z,16.70
2017-08-21T20:34:10.195Z,16.70
2017-08-21T20:36:36.599Z,16.70
2017-08-21T20:39:03.031Z,16.60
2017-08-21T20:41:29.432Z,16.50
2017-08-21T20:43:55.842Z,16.50
2017-08-21T20:46:22.217Z,16.50
2017-08-21T20:48:48.586Z,16.40
2017-08-21T20:51:15.010Z,16.50
2017-08-21T20:53:41.412Z,16.40
2017-08-21T20:56:07.823Z,16.40
2017-08-21T20:58:34.227Z,16.30
2017-08-21T21:01:00.591Z,16.30
2017-08-21T21:03:27.000Z,16.30
2017-08-21T21:05:53.416Z,16.30
2017-08-21T21:08:19.799Z,16.20
2017-08-21T21:10:46.188Z,16.30
2017-08-21T21:13:12.595Z,16.20
2017-08-21T21:15:39.035Z,16.20
2017-08-21T21:18:05.480Z,16.20
2017-08-21T21:20:31.868Z,16.20
2017-08-21T21:22:58.462Z,16.20
2017-08-21T21:25:24.859Z,16.20
2017-08-21T21:27:51.250Z,16.20
2017-08-21T21:30:17.661Z,16.10
2017-08-21T21:32:44.035Z,16.10
2017-08-21T21:35:10.431Z,16.00
2017-08-21T21:37:36.827Z,16.00
2017-08-21T21:40:03.204Z,16.00
2017-08-21T21:42:29.598Z,16.00
2017-08-21T21:44:55.989Z,15.90
2017-08-21T21:47:22.392Z,15.90
2017-08-21T21:49:48.770Z,16.00
2017-08-21T21:52:15.171Z,16.00
2017-08-21T21:54:41.582Z,16.10
2017-08-21T21:57:07.947Z,16.20
2017-08-21T21:59:34.318Z,16.20
2017-08-21T22:02:00.731Z,16.20
2017-08-21T22:04:27.120Z,16.10
2017-08-21T22:06:53.515Z,16.10
2017-08-21T22:09:19.883Z,16.10
2017-08-21T22:11:46.335Z,16.10
2017-08-21T22:14:12.719Z,16.20
2017-08-21T22:16:39.104Z,16.20
2017-08-21T22:19:05.535Z,16.10
2017-08-21T22:21:31.968Z,16.00
2017-08-21T22:23:58.379Z,16.00
2017-08-21T22:26:24.760Z,16.00
2017-08-21T22:28:51.143Z,15.90
2017-08-21T22:31:17.559Z,15.90
2017-08-21T22:33:43.936Z,15.70
2017-08-21T22:36:10.364Z,15.60
2017-08-21T22:38:36.738Z,15.50
2017-08-21T22:41:03.116Z,15.50
2017-08-21T22:43:29.525Z,15.40
2017-08-21T22:45:55.900Z,15.40
2017-08-21T22:48:22.311Z,15.20
2017-08-21T22:50:48.698Z,15.20
2017-08-21T22:53:15.101Z,15.10
2017-08-21T22:55:41.491Z,15.00
2017-08-21T22:58:07.858Z,15.00
2017-08-21T23:00:34.275Z,14.90
2017-08-21T23:03:00.684Z,14.80
2017-08-21T23:05:27.059Z,14.80
2017-08-21T23:07:53.460Z,14.80
2017-08-21T23:10:19.835Z,14.70
2017-08-21T23:12:46.269Z,14.70
2017-08-21T23:15:12.643Z,14.60
2017-08-21T23:17:39.039Z,14.50
2017-08-21T23:20:05.464Z,14.50
2017-08-21T23:22:31.890Z,14.50
2017-08-21T23:24:58.295Z,14.50
2017-08-21T23:27:24.724Z,14.40
2017-08-21T23:29:51.094Z,14.30
2017-08-21T23:32:17.487Z,14.30
2017-08-21T23:34:43.883Z,14.20
2017-08-21T23:37:10.284Z,14.20
2017-08-21T23:39:36.680Z,14.20
2017-08-21T23:42:03.091Z,14.30
2017-08-21T23:44:29.543Z,14.30
2017-08-21T23:46:55.934Z,14.20
2017-08-21T23:49:22.311Z,14.20
2017-08-21T23:51:48.720Z,14.20
2017-08-21T23:54:15.095Z,14.20
2017-08-21T23:56:41.483Z,14.20
2017-08-21T23:59:07.885Z,14.10
